createdAt,value
2023-01-29T00:00:12.732Z,7.72
2023-01-29T00:02:39.703Z,7.70
2023-01-29T00:05:25.573Z,7.53
2023-01-29T00:07:53.408Z,7.55
2023-01-29T00:10:19.976Z,7.10
2023-01-29T00:12:46.533Z,8.27
2023-01-29T00:15:13.141Z,7.03
2023-01-29T00:17:39.695Z,7.47
2023-01-29T00:20:06.745Z,7.30
2023-01-29T00:22:33.325Z,8.15
2023-01-29T00:24:59.940Z,7.80
2023-01-29T00:27:26.519Z,7.80
2023-01-29T00:30:09.190Z,8.15
2023-01-29T00:32:36.328Z,8.73
2023-01-29T00:35:03.715Z,8.75
2023-01-29T00:37:30.719Z,7.72
2023-01-29T00:39:57.830Z,8.18
2023-01-29T00:42:43.422Z,8.23
2023-01-29T00:45:11.179Z,9.30
2023-01-29T00:47:37.882Z,8.95
2023-01-29T00:50:08.059Z,10.40
2023-01-29T00:52:36.469Z,9.77
2023-01-29T00:55:05.918Z,8.88
2023-01-29T00:57:34.328Z,9.18
2023-01-29T01:00:01.685Z,8.48
2023-01-29T01:02:47.002Z,8.85
2023-01-29T01:05:18.265Z,7.82
2023-01-29T01:07:53.286Z,7.68
2023-01-29T01:10:31.356Z,8.85
2023-01-29T01:12:59.319Z,8.05
2023-01-29T01:15:29.513Z,9.52
2023-01-29T01:17:58.584Z,9.90
2023-01-29T01:20:27.838Z,10.32
2023-01-29T01:22:55.064Z,9.75
2023-01-29T01:25:23.899Z,10.15
2023-01-29T01:30:26.139Z,9.82
2023-01-29T01:32:53.182Z,10.85
2023-01-29T01:35:19.954Z,10.38
2023-01-29T01:37:46.559Z,10.85
2023-01-29T01:40:22.137Z,12.05
2023-01-29T01:42:56.984Z,11.05
2023-01-29T01:45:35.421Z,10.68
2023-01-29T01:48:19.443Z,10.15
2023-01-29T01:50:52.368Z,10.88
2023-01-29T01:53:35.086Z,10.88
2023-01-29T01:56:04.904Z,10.82
2023-01-29T01:58:36.472Z,10.68
2023-01-29T02:01:05.992Z,18.30
2023-01-29T02:03:56.692Z,14.18
2023-01-29T02:06:41.884Z,18.63
2023-01-29T02:09:36.001Z,72.05
2023-01-29T02:12:08.661Z,31.55
2023-01-29T02:14:40.878Z,9.82
2023-01-29T02:17:10.377Z,14.57
2023-01-29T02:19:39.960Z,16.98
2023-01-29T02:22:20.881Z,12.85
2023-01-29T02:25:14.952Z,16.55
2023-01-29T02:28:32.908Z,15.85
2023-01-29T02:31:24.293Z,18.83
2023-01-29T02:34:08.631Z,19.08
2023-01-29T02:37:00.031Z,14.52
2023-01-29T02:39:38.663Z,16.23
2023-01-29T02:42:17.616Z,7.38
2023-01-29T02:44:52.353Z,6.60
2023-01-29T02:47:40.032Z,6.85
2023-01-29T02:50:06.602Z,11.23
2023-01-29T02:52:39.555Z,7.63
2023-01-29T02:55:15.774Z,8.25
2023-01-29T02:57:46.362Z,7.32
2023-01-29T03:00:16.101Z,7.07
2023-01-29T03:02:52.940Z,7.28
2023-01-29T03:05:28.853Z,7.65
2023-01-29T03:08:02.845Z,7.50
2023-01-29T03:10:54.595Z,7.68
2023-01-29T03:13:40.818Z,7.32
2023-01-29T03:16:19.228Z,6.80
2023-01-29T03:19:09.218Z,7.00
2023-01-29T03:22:14.431Z,6.97
2023-01-29T03:25:07.439Z,7.28
2023-01-29T03:28:04.513Z,7.80
2023-01-29T03:30:53.768Z,8.38
2023-01-29T03:33:23.988Z,7.75
2023-01-29T03:36:00.886Z,7.85
2023-01-29T03:38:32.164Z,7.72
2023-01-29T03:41:07.586Z,7.60
2023-01-29T03:43:50.879Z,7.55
2023-01-29T03:46:31.481Z,8.40
2023-01-29T03:48:58.024Z,7.63
2023-01-29T03:51:36.420Z,6.82
2023-01-29T03:54:35.549Z,6.82
2023-01-29T03:57:16.152Z,7.45
2023-01-29T04:00:19.137Z,7.95
2023-01-29T04:03:13.001Z,7.88
2023-01-29T04:05:47.645Z,13.55
2023-01-29T04:08:21.403Z,19.60
2023-01-29T04:10:51.208Z,7.15
2023-01-29T04:13:19.071Z,5.93
2023-01-29T04:15:50.794Z,5.03
2023-01-29T04:18:17.397Z,5.68
2023-01-29T04:20:44.550Z,6.95
2023-01-29T04:23:26.050Z,6.50
2023-01-29T04:26:21.856Z,7.63
2023-01-29T04:29:10.095Z,7.85
2023-01-29T04:32:02.032Z,7.15
2023-01-29T04:34:42.179Z,7.00
2023-01-29T04:37:17.087Z,7.18
2023-01-29T04:39:55.828Z,7.30
2023-01-29T04:42:25.368Z,6.82
2023-01-29T04:45:18.097Z,7.03
2023-01-29T04:47:54.357Z,7.22
2023-01-29T04:50:38.058Z,6.60
2023-01-29T04:53:09.315Z,7.50
2023-01-29T04:56:06.430Z,8.82
2023-01-29T04:58:39.735Z,8.10
2023-01-29T05:01:11.201Z,8.20
2023-01-29T05:03:41.098Z,8.48
2023-01-29T05:06:10.048Z,8.20
2023-01-29T05:08:39.166Z,8.52
2023-01-29T05:11:06.344Z,8.45
2023-01-29T05:13:39.255Z,8.32
2023-01-29T05:16:21.185Z,7.97
2023-01-29T05:18:48.355Z,8.15
2023-01-29T05:21:14.948Z,9.23
2023-01-29T05:23:57.350Z,9.27
2023-01-29T05:26:43.016Z,8.05
2023-01-29T05:29:12.279Z,8.30
2023-01-29T05:31:38.912Z,8.48
2023-01-29T05:34:05.502Z,8.48
2023-01-29T05:36:32.073Z,8.45
2023-01-29T05:38:58.662Z,9.20
2023-01-29T05:41:25.230Z,9.57
2023-01-29T05:43:51.835Z,9.07
2023-01-29T05:46:18.944Z,8.75
2023-01-29T05:48:45.653Z,9.02
2023-01-29T05:51:12.353Z,9.73
2023-01-29T05:53:38.893Z,9.25
2023-01-29T05:56:05.853Z,9.43
2023-01-29T05:58:33.418Z,9.35
2023-01-29T06:01:09.364Z,8.82
2023-01-29T06:03:36.011Z,7.95
2023-01-29T06:06:02.836Z,8.32
2023-01-29T06:08:29.406Z,7.45
2023-01-29T06:10:56.005Z,7.97
2023-01-29T06:13:23.696Z,8.25
2023-01-29T06:15:50.585Z,8.57
2023-01-29T06:18:17.455Z,8.25
2023-01-29T06:20:44.163Z,9.05
2023-01-29T06:23:10.742Z,9.20
2023-01-29T06:25:37.441Z,8.43
2023-01-29T06:28:04.248Z,8.30
2023-01-29T06:30:31.914Z,8.20
2023-01-29T06:32:59.478Z,8.68
2023-01-29T06:35:26.197Z,9.10
2023-01-29T06:37:52.791Z,9.48
2023-01-29T06:40:20.131Z,8.15
2023-01-29T06:42:46.744Z,8.05
2023-01-29T06:45:14.079Z,8.27
2023-01-29T06:47:40.636Z,7.70
2023-01-29T06:50:07.380Z,7.72
2023-01-29T06:52:33.966Z,8.82
2023-01-29T06:55:00.558Z,8.57
2023-01-29T06:57:30.104Z,10.60
2023-01-29T06:59:56.727Z,8.82
2023-01-29T07:02:23.486Z,9.48
2023-01-29T07:04:50.137Z,8.73
2023-01-29T07:07:16.744Z,8.85
2023-01-29T07:09:43.751Z,8.18
2023-01-29T07:12:11.106Z,8.13
2023-01-29T07:14:37.744Z,8.15
2023-01-29T07:17:04.371Z,7.82
2023-01-29T07:19:30.954Z,7.82
2023-01-29T07:21:57.638Z,7.82
2023-01-29T07:24:24.942Z,8.05
2023-01-29T07:26:51.681Z,7.78
2023-01-29T07:29:18.376Z,7.75
2023-01-29T07:31:45.281Z,8.27
2023-01-29T07:34:11.904Z,7.45
2023-01-29T07:36:38.501Z,8.02
2023-01-29T07:39:05.153Z,7.38
2023-01-29T07:41:31.761Z,8.35
2023-01-29T07:43:58.373Z,7.68
2023-01-29T07:46:25.038Z,6.85
2023-01-29T07:48:51.631Z,7.00
2023-01-29T07:51:18.660Z,6.85
2023-01-29T07:53:45.292Z,7.93
2023-01-29T07:56:11.898Z,8.23
2023-01-29T07:58:38.581Z,7.65
2023-01-29T08:01:07.513Z,7.93
2023-01-29T08:03:34.152Z,8.48
2023-01-29T08:06:00.876Z,8.27
2023-01-29T08:08:27.458Z,9.27
2023-01-29T08:10:54.019Z,7.93
2023-01-29T08:13:20.611Z,29.20
2023-01-29T08:15:47.278Z,19.73
2023-01-29T08:18:14.528Z,25.65
2023-01-29T08:20:41.228Z,22.50
2023-01-29T08:23:13.013Z,13.10
2023-01-29T08:25:39.731Z,12.32
2023-01-29T08:28:06.639Z,11.35
2023-01-29T08:30:34.409Z,11.10
2023-01-29T08:33:01.640Z,10.98
2023-01-29T08:35:28.250Z,10.15
2023-01-29T08:38:01.838Z,11.43
2023-01-29T08:40:31.958Z,12.55
2023-01-29T08:43:05.566Z,10.73
2023-01-29T08:45:35.833Z,11.20
2023-01-29T08:48:02.876Z,10.18
2023-01-29T08:50:34.495Z,10.57
2023-01-29T08:53:03.551Z,9.38
2023-01-29T08:55:30.352Z,11.07
2023-01-29T08:57:59.845Z,9.85
2023-01-29T09:00:26.668Z,8.05
2023-01-29T09:02:53.253Z,7.88
2023-01-29T09:05:20.345Z,8.68
2023-01-29T09:07:47.148Z,8.65
2023-01-29T09:10:13.900Z,8.23
2023-01-29T09:12:40.581Z,8.27
2023-01-29T09:15:07.864Z,8.88
2023-01-29T09:17:34.640Z,9.13
2023-01-29T09:20:01.220Z,8.50
2023-01-29T09:22:28.534Z,9.30
2023-01-29T09:24:55.184Z,8.07
2023-01-29T09:27:21.848Z,8.38
2023-01-29T09:29:48.493Z,8.05
2023-01-29T09:32:16.843Z,8.50
2023-01-29T09:34:46.204Z,9.10
2023-01-29T09:37:12.840Z,8.90
2023-01-29T09:39:39.406Z,7.68
2023-01-29T09:42:09.088Z,8.27
2023-01-29T09:45:06.114Z,8.48
2023-01-29T09:47:35.933Z,8.00
2023-01-29T09:50:15.547Z,7.82
2023-01-29T09:53:23.246Z,7.63
2023-01-29T09:55:56.246Z,8.63
2023-01-29T09:58:25.970Z,7.45
2023-01-29T10:01:23.309Z,8.30
2023-01-29T10:04:19.250Z,7.72
2023-01-29T10:07:04.516Z,7.93
2023-01-29T10:09:41.196Z,8.48
2023-01-29T10:12:32.512Z,7.50
2023-01-29T10:15:17.717Z,8.00
2023-01-29T10:18:04.969Z,7.85
2023-01-29T10:20:42.961Z,8.55
2023-01-29T10:23:12.298Z,7.40
2023-01-29T10:25:41.877Z,7.63
2023-01-29T10:28:50.273Z,8.35
2023-01-29T10:31:23.500Z,8.05
2023-01-29T10:34:03.463Z,9.25
2023-01-29T10:36:50.380Z,7.97
2023-01-29T10:39:20.603Z,7.88
2023-01-29T10:41:47.108Z,8.25
2023-01-29T10:44:29.197Z,8.85
2023-01-29T10:49:52.899Z,8.48
2023-01-29T10:52:31.601Z,8.75
2023-01-29T10:55:17.072Z,8.32
2023-01-29T10:57:56.572Z,9.82
2023-01-29T11:00:27.414Z,9.52
2023-01-29T11:02:54.274Z,9.13
2023-01-29T11:05:55.008Z,8.77
2023-01-29T11:08:25.108Z,9.30
2023-01-29T11:11:07.466Z,8.55
2023-01-29T11:13:40.568Z,8.43
2023-01-29T11:16:09.486Z,8.77
2023-01-29T11:18:50.686Z,8.80
2023-01-29T11:21:17.503Z,9.37
2023-01-29T11:23:44.251Z,8.95
2023-01-29T11:26:19.300Z,8.93
2023-01-29T11:28:48.317Z,8.85
2023-01-29T11:31:35.212Z,9.38
2023-01-29T11:34:16.825Z,9.35
2023-01-29T11:36:45.004Z,9.05
2023-01-29T11:39:21.578Z,10.38
2023-01-29T11:41:52.849Z,9.40
2023-01-29T11:44:31.408Z,9.02
2023-01-29T11:47:11.714Z,9.77
2023-01-29T11:49:41.477Z,9.02
2023-01-29T11:52:10.338Z,9.18
2023-01-29T11:54:52.045Z,9.52
2023-01-29T11:57:26.364Z,9.50
2023-01-29T11:59:55.267Z,9.00
2023-01-29T12:02:35.727Z,9.25
2023-01-29T12:05:06.871Z,8.05
2023-01-29T12:07:34.645Z,8.50
2023-01-29T12:10:01.349Z,9.00
2023-01-29T12:12:29.970Z,8.85
2023-01-29T12:15:04.975Z,9.25
2023-01-29T12:17:38.045Z,9.63
2023-01-29T12:20:20.279Z,8.60
2023-01-29T12:23:31.205Z,9.48
2023-01-29T12:26:12.896Z,9.02
2023-01-29T12:29:01.744Z,10.25
2023-01-29T12:31:53.664Z,9.38
2023-01-29T12:34:46.306Z,10.27
2023-01-29T12:37:45.722Z,10.02
2023-01-29T12:40:17.741Z,9.98
2023-01-29T12:42:56.286Z,10.07
2023-01-29T12:45:26.031Z,10.50
2023-01-29T12:47:57.513Z,11.55
2023-01-29T12:50:28.860Z,11.77
2023-01-29T12:53:18.688Z,11.23
2023-01-29T12:55:48.950Z,10.50
2023-01-29T12:58:25.401Z,11.07
2023-01-29T13:00:57.194Z,11.63
2023-01-29T13:03:45.737Z,11.25
2023-01-29T13:06:18.100Z,10.70
2023-01-29T13:08:53.862Z,11.35
2023-01-29T13:11:26.680Z,11.48
2023-01-29T13:13:59.658Z,11.40
2023-01-29T13:16:30.819Z,12.18
2023-01-29T13:19:00.759Z,11.63
2023-01-29T13:21:31.468Z,11.85
2023-01-29T13:24:03.483Z,10.57
2023-01-29T13:26:31.889Z,11.52
2023-01-29T13:28:58.887Z,12.00
2023-01-29T13:31:34.414Z,13.00
2023-01-29T13:34:14.245Z,11.93
2023-01-29T13:36:50.208Z,11.95
2023-01-29T13:39:44.304Z,13.45
2023-01-29T13:42:19.156Z,14.30
2023-01-29T13:44:51.272Z,14.25
2023-01-29T13:47:26.681Z,14.85
2023-01-29T13:50:01.652Z,14.48
2023-01-29T13:52:40.853Z,14.57
2023-01-29T13:55:09.433Z,14.27
2023-01-29T13:57:45.018Z,15.05
2023-01-29T14:00:34.921Z,15.25
2023-01-29T14:03:01.429Z,14.52
2023-01-29T14:05:30.991Z,14.15
2023-01-29T14:07:59.271Z,13.52
2023-01-29T14:10:30.855Z,14.70
2023-01-29T14:13:03.318Z,14.63
2023-01-29T14:15:40.138Z,14.45
2023-01-29T14:18:06.803Z,15.05
2023-01-29T14:20:48.661Z,14.18
2023-01-29T14:23:41.615Z,15.05
2023-01-29T14:26:45.213Z,14.90
2023-01-29T14:29:34.339Z,14.48
2023-01-29T14:32:19.314Z,14.85
2023-01-29T14:34:49.791Z,15.00
2023-01-29T14:37:16.312Z,15.05
2023-01-29T14:39:43.047Z,15.77
2023-01-29T14:42:37.657Z,15.63
2023-01-29T14:45:21.924Z,16.60
2023-01-29T14:47:48.474Z,16.40
2023-01-29T14:50:33.298Z,15.52
2023-01-29T14:53:19.764Z,16.13
2023-01-29T14:56:03.278Z,16.58
2023-01-29T14:58:46.942Z,16.55
2023-01-29T15:01:37.329Z,16.05
2023-01-29T15:04:34.870Z,15.82
2023-01-29T15:07:12.492Z,16.08
2023-01-29T15:09:55.624Z,17.33
2023-01-29T15:12:25.631Z,17.52
2023-01-29T15:15:10.615Z,15.23
2023-01-29T15:17:49.699Z,15.75
2023-01-29T15:20:48.599Z,15.88
2023-01-29T15:23:28.681Z,16.20
2023-01-29T15:25:58.995Z,15.73
2023-01-29T15:28:28.899Z,15.23
2023-01-29T15:30:57.349Z,15.50
2023-01-29T15:33:24.197Z,15.93
2023-01-29T15:36:08.716Z,16.08
2023-01-29T15:38:36.184Z,16.02
2023-01-29T15:41:16.423Z,15.63
2023-01-29T15:43:56.126Z,15.93
2023-01-29T15:46:34.389Z,15.90
2023-01-29T15:49:07.009Z,16.42
2023-01-29T15:51:34.099Z,17.10
2023-01-29T15:54:03.494Z,16.40
2023-01-29T15:56:51.293Z,16.45
2023-01-29T15:59:22.112Z,16.60
2023-01-29T16:01:48.772Z,16.05
2023-01-29T16:04:21.068Z,16.10
2023-01-29T16:06:48.700Z,15.65
2023-01-29T16:09:19.687Z,17.40
2023-01-29T16:11:47.711Z,16.87
2023-01-29T16:14:17.645Z,15.50
2023-01-29T16:16:45.238Z,16.05
2023-01-29T16:19:22.473Z,16.08
2023-01-29T16:22:06.346Z,15.57
2023-01-29T16:24:36.563Z,16.48
2023-01-29T16:27:12.598Z,16.55
2023-01-29T16:29:39.504Z,16.23
2023-01-29T16:32:06.994Z,16.33
2023-01-29T16:34:37.802Z,15.70
2023-01-29T16:37:07.842Z,16.17
2023-01-29T16:39:44.440Z,15.35
2023-01-29T16:42:12.329Z,15.35
2023-01-29T16:44:40.215Z,16.15
2023-01-29T16:47:12.984Z,14.98
2023-01-29T16:49:39.653Z,15.45
2023-01-29T16:52:24.782Z,15.57
2023-01-29T16:54:52.133Z,15.77
2023-01-29T16:57:26.003Z,15.38
2023-01-29T16:59:56.009Z,15.32
2023-01-29T17:02:25.496Z,15.88
2023-01-29T17:04:55.878Z,15.93
2023-01-29T17:07:23.618Z,15.27
2023-01-29T17:09:56.286Z,15.55
2023-01-29T17:12:26.439Z,16.23
2023-01-29T17:15:01.408Z,14.90
2023-01-29T17:17:33.721Z,15.95
2023-01-29T17:20:14.133Z,17.02
2023-01-29T17:22:40.982Z,15.60
2023-01-29T17:25:08.098Z,15.85
2023-01-29T17:27:34.664Z,15.57
2023-01-29T17:30:01.359Z,15.80
2023-01-29T17:32:45.173Z,16.08
2023-01-29T17:35:15.933Z,16.33
2023-01-29T17:37:43.641Z,16.23
2023-01-29T17:40:42.401Z,15.48
2023-01-29T17:43:11.805Z,14.48
2023-01-29T17:45:39.571Z,15.10
2023-01-29T17:48:14.466Z,15.15
2023-01-29T17:50:48.332Z,15.43
2023-01-29T17:53:16.086Z,15.70
2023-01-29T17:55:43.333Z,15.98
2023-01-29T17:58:28.111Z,15.15
2023-01-29T18:00:55.297Z,16.15
2023-01-29T18:03:23.023Z,15.27
2023-01-29T18:05:50.287Z,15.15
2023-01-29T18:08:17.019Z,15.77
2023-01-29T18:10:44.632Z,15.82
2023-01-29T18:13:11.434Z,16.95
2023-01-29T18:15:38.176Z,15.68
2023-01-29T18:18:05.922Z,16.95
2023-01-29T18:20:36.723Z,16.02
2023-01-29T18:23:04.526Z,16.50
2023-01-29T18:25:31.602Z,17.42
2023-01-29T18:27:58.148Z,17.15
2023-01-29T18:30:24.941Z,17.77
2023-01-29T18:32:51.852Z,18.13
2023-01-29T18:35:18.689Z,17.75
2023-01-29T18:37:45.764Z,18.70
2023-01-29T18:40:13.837Z,18.13
2023-01-29T18:42:40.809Z,18.15
2023-01-29T18:45:08.177Z,17.35
2023-01-29T18:47:34.772Z,17.02
2023-01-29T18:50:01.374Z,16.50
2023-01-29T18:52:27.953Z,17.20
2023-01-29T18:54:54.549Z,17.13
2023-01-29T18:58:29.394Z,16.83
2023-01-29T19:00:09.446Z,17.52
2023-01-29T19:02:36.162Z,17.20
2023-01-29T19:05:02.749Z,17.42
2023-01-29T19:07:29.347Z,16.60
2023-01-29T19:09:56.143Z,17.10
2023-01-29T19:12:23.656Z,17.45
2023-01-29T19:14:50.246Z,17.85
2023-01-29T19:17:17.222Z,17.92
2023-01-29T19:19:43.814Z,18.33
2023-01-29T19:22:10.393Z,17.92
2023-01-29T19:24:39.072Z,18.58
2023-01-29T19:27:06.717Z,19.05
2023-01-29T19:29:33.496Z,18.08
2023-01-29T19:32:00.174Z,18.80
2023-01-29T19:34:26.989Z,18.00
2023-01-29T19:36:53.653Z,17.52
2023-01-29T19:39:20.479Z,18.17
2023-01-29T19:41:47.068Z,17.13
2023-01-29T19:44:13.695Z,17.42
2023-01-29T19:46:40.300Z,18.45
2023-01-29T19:49:07.238Z,18.55
2023-01-29T19:51:33.875Z,18.38
2023-01-29T19:54:00.512Z,18.88
2023-01-29T19:56:27.133Z,18.35
2023-01-29T19:58:57.485Z,18.35
2023-01-29T20:01:24.947Z,18.52
2023-01-29T20:03:52.065Z,18.77
2023-01-29T20:06:22.305Z,18.38
2023-01-29T20:08:49.099Z,19.90
2023-01-29T20:11:17.564Z,20.00
2023-01-29T20:13:46.936Z,22.88
2023-01-29T20:16:13.628Z,23.00
2023-01-29T20:18:40.226Z,22.67
2023-01-29T20:21:09.494Z,24.48
2023-01-29T20:23:38.577Z,25.40
2023-01-29T20:26:07.362Z,24.80
2023-01-29T20:28:34.995Z,26.23
2023-01-29T20:31:02.288Z,26.40
2023-01-29T20:33:29.200Z,26.38
2023-01-29T20:35:57.749Z,24.95
2023-01-29T20:38:25.644Z,28.10
2023-01-29T20:40:52.221Z,26.80
2023-01-29T20:43:18.790Z,26.15
2023-01-29T20:45:45.431Z,27.33
2023-01-29T20:48:12.216Z,26.23
2023-01-29T20:50:38.830Z,25.67
2023-01-29T20:53:05.414Z,27.65
2023-01-29T20:55:32.195Z,27.83
2023-01-29T20:58:06.432Z,28.20
2023-01-29T21:00:33.786Z,26.52
2023-01-29T21:03:00.542Z,27.42
2023-01-29T21:05:27.093Z,28.10
2023-01-29T21:07:53.800Z,27.45
2023-01-29T21:10:20.396Z,28.80
2023-01-29T21:12:47.028Z,28.13
2023-01-29T21:15:13.654Z,28.08
2023-01-29T21:17:40.202Z,27.85
2023-01-29T21:20:08.353Z,26.67
2023-01-29T21:22:34.959Z,27.73
2023-01-29T21:25:01.564Z,27.23
2023-01-29T21:27:28.133Z,28.08
2023-01-29T21:29:54.787Z,27.15
2023-01-29T21:32:21.353Z,26.80
2023-01-29T21:34:47.885Z,26.08
2023-01-29T21:37:14.508Z,28.13
2023-01-29T21:39:41.107Z,28.30
2023-01-29T21:42:26.036Z,27.85
2023-01-29T21:44:52.605Z,27.65
2023-01-29T21:47:19.256Z,28.48
2023-01-29T21:49:45.864Z,28.50
2023-01-29T21:52:13.237Z,27.42
2023-01-29T21:54:40.716Z,27.92
2023-01-29T21:57:12.505Z,28.27
2023-01-29T21:59:39.385Z,27.67
2023-01-29T22:02:06.687Z,27.88
2023-01-29T22:04:33.401Z,26.92
2023-01-29T22:06:59.969Z,26.15
2023-01-29T22:09:26.854Z,28.52
2023-01-29T22:11:53.589Z,28.77
2023-01-29T22:14:20.351Z,28.65
2023-01-29T22:16:46.954Z,28.08
2023-01-29T22:19:13.852Z,28.73
2023-01-29T22:21:40.784Z,27.92
2023-01-29T22:24:08.325Z,28.88
2023-01-29T22:26:35.850Z,27.15
2023-01-29T22:29:02.797Z,28.02
2023-01-29T22:31:29.451Z,27.73
2023-01-29T22:33:56.375Z,26.83
2023-01-29T22:36:23.130Z,27.60
2023-01-29T22:38:49.684Z,26.45
2023-01-29T22:41:16.320Z,28.27
2023-01-29T22:43:44.119Z,25.55
2023-01-29T22:46:11.812Z,27.02
2023-01-29T22:48:38.465Z,26.20
2023-01-29T22:51:11.786Z,26.30
2023-01-29T22:53:52.644Z,27.95
2023-01-29T22:56:20.907Z,26.83
2023-01-29T22:58:59.313Z,27.35
2023-01-29T23:01:29.682Z,27.58
2023-01-29T23:03:56.793Z,25.90
2023-01-29T23:06:24.441Z,27.27
2023-01-29T23:08:51.672Z,27.20
2023-01-29T23:11:20.711Z,25.70
2023-01-29T23:13:48.653Z,26.20
2023-01-29T23:16:16.844Z,25.80
2023-01-29T23:18:44.798Z,25.67
2023-01-29T23:21:12.594Z,26.05
2023-01-29T23:23:40.054Z,25.27
2023-01-29T23:26:26.501Z,27.60
2023-01-29T23:28:53.202Z,27.05
2023-01-29T23:31:19.771Z,26.42
2023-01-29T23:33:46.398Z,26.80
2023-01-29T23:36:13.137Z,26.08
2023-01-29T23:38:39.774Z,27.02
2023-01-29T23:41:06.407Z,25.77
2023-01-29T23:43:33.687Z,26.85
2023-01-29T23:46:00.300Z,26.42
2023-01-29T23:48:26.872Z,26.98
2023-01-29T23:50:53.432Z,25.80
2023-01-29T23:53:20.090Z,26.10
2023-01-29T23:56:01.930Z,26.48
2023-01-29T23:58:29.669Z,26.98
